OIFS  Shahrekord Airport

Add Bookmark

Shahrekord, Iran

Status IATA
Operational CQD
Latitude Longitude
32° 17' 49" N 50° 50' 31" E
32.297199 50.842201
Local (DST + 5) UTC (GMT + 4)
Nov 26, 2014 08:26 Nov 26, 2014 04:56
Sunrise-Sunset Local UTC
Begin Civil Twilight 06:17 02:47
Sunrise 06:44 03:14
Sunset 05:03 13:33
End Civil Twilight 05:30 14:00

Current Weather

METAR Observed MVFR
OIFS 260400Z 30002KT 5000 BR FEW015 SCT035 M02/M02 Q1018 Wed, Nov 26, 2014 @ 04:00 UTC
(56 Minutes ago)
Marginal Visual Flight Rules
Wind Visibility Clouds Conditions
300° at 2 knots (4 kph) 5000 meters
  • Few at 1,500' AGL
  • Scattered at 3,500' AGL
  • Mist
Temperatures Readings Precipitation
Current Temp -2°C (28°F)
Dewpoint -2°C (28°F)
Humidity 100%
Altimeter 30.06"Hg
Sea Level Pressure 1018mb
Field Elevation 6817.59'
None Recorded

Additional weather within a 185.2km radius of OIFS

Map ICAO Location
OIFM 108km E (062°)

24 Hour Weather History

Loading
-

24 Hour Weather Graphs

Loading
-

CheckWX.com is intended as a tool to help pilots better visualize weather data. It is not intended as a substitute for an official weather briefing obtained from a Flight Service Station. CheckWX.com does not meet the FAA requirements for an official pre-flight weather briefing. Therefore, it's important that pilots still call and obtain an official FSS pre-flight weather briefing.